sensor_id;sensor_type;location;lat;lon;timestamp;pressure;altitude;pressure_sealevel;temperature;humidity
55038;BME280;40937;53.594;10.034;2022-10-16T00:01:09;77501.13;;;-147.20;73.36
55038;BME280;40937;53.594;10.034;2022-10-16T00:03:37;77503.13;;;-147.20;73.32
55038;BME280;40937;53.594;10.034;2022-10-16T00:06:04;77507.16;;;-147.20;72.83
55038;BME280;40937;53.594;10.034;2022-10-16T00:08:31;77515.25;;;-147.20;72.83
55038;BME280;40937;53.594;10.034;2022-10-16T00:11:02;77507.16;;;-147.20;72.62
55038;BME280;40937;53.594;10.034;2022-10-16T00:13:31;77515.25;;;-147.20;72.58
55038;BME280;40937;53.594;10.034;2022-10-16T00:15:59;77521.31;;;-147.20;72.44
55038;BME280;40937;53.594;10.034;2022-10-16T00:18:26;77513.22;;;-147.20;72.13
55038;BME280;40937;53.594;10.034;2022-10-16T00:20:53;77511.22;;;-147.20;71.92
55038;BME280;40937;53.594;10.034;2022-10-16T00:23:20;77513.22;;;-147.20;71.52
55038;BME280;40937;53.594;10.034;2022-10-16T00:25:54;77517.25;;;-147.20;71.39
55038;BME280;40937;53.594;10.034;2022-10-16T00:28:21;77521.31;;;-147.20;70.95
55038;BME280;40937;53.594;10.034;2022-10-16T00:30:49;77511.22;;;-147.20;70.49
55038;BME280;40937;53.594;10.034;2022-10-16T00:33:16;77519.28;;;-147.20;70.16
55038;BME280;40937;53.594;10.034;2022-10-16T00:35:43;77525.34;;;-147.20;69.72
55038;BME280;40937;53.594;10.034;2022-10-16T00:38:09;77527.34;;;-147.20;69.28
55038;BME280;40937;53.594;10.034;2022-10-16T00:40:36;77529.38;;;-147.20;68.80
55038;BME280;40937;53.594;10.034;2022-10-16T00:43:07;77533.41;;;-147.20;68.12
55038;BME280;40937;53.594;10.034;2022-10-16T00:45:35;77529.38;;;-147.20;67.97
55038;BME280;40937;53.594;10.034;2022-10-16T00:48:04;77535.44;;;-147.20;67.84
55038;BME280;40937;53.594;10.034;2022-10-16T00:50:32;77535.44;;;-147.20;67.53
55038;BME280;40937;53.594;10.034;2022-10-16T00:53:00;77541.50;;;-147.20;67.61
55038;BME280;40937;53.594;10.034;2022-10-16T00:55:28;77537.44;;;-147.20;67.48
55038;BME280;40937;53.594;10.034;2022-10-16T00:57:56;77533.41;;;-147.20;66.78
55038;BME280;40937;53.594;10.034;2022-10-16T01:00:25;77535.44;;;-147.20;66.37
55038;BME280;40937;53.594;10.034;2022-10-16T01:02:52;77535.44;;;-147.20;65.93
55038;BME280;40937;53.594;10.034;2022-10-16T01:05:21;77535.44;;;-147.20;65.88
55038;BME280;40937;53.594;10.034;2022-10-16T01:07:56;77533.41;;;-147.20;65.42
55038;BME280;40937;53.594;10.034;2022-10-16T01:10:34;77545.53;;;-147.20;65.61
55038;BME280;40937;53.594;10.034;2022-10-16T01:13:03;77547.53;;;-147.20;65.72
55038;BME280;40937;53.594;10.034;2022-10-16T01:15:34;77551.59;;;-147.20;65.58
55038;BME280;40937;53.594;10.034;2022-10-16T01:18:08;77553.59;;;-147.20;65.57
55038;BME280;40937;53.594;10.034;2022-10-16T01:20:42;77547.53;;;-147.20;64.72
55038;BME280;40937;53.594;10.034;2022-10-16T01:23:21;77555.63;;;-147.20;64.88
55038;BME280;40937;53.594;10.034;2022-10-16T01:26:07;77553.59;;;-147.20;64.34
55038;BME280;40937;53.594;10.034;2022-10-16T01:28:41;77553.59;;;-147.20;64.61
55038;BME280;40937;53.594;10.034;2022-10-16T01:31:15;77565.72;;;-147.20;64.51
55038;BME280;40937;53.594;10.034;2022-10-16T01:33:46;77563.69;;;-147.20;64.72
55038;BME280;40937;53.594;10.034;2022-10-16T01:36:16;77567.72;;;-147.20;64.65
55038;BME280;40937;53.594;10.034;2022-10-16T01:38:47;77571.78;;;-147.20;64.33
55038;BME280;40937;53.594;10.034;2022-10-16T01:41:19;77567.72;;;-147.20;64.28
55038;BME280;40937;53.594;10.034;2022-10-16T01:43:53;77561.69;;;-147.20;64.03
55038;BME280;40937;53.594;10.034;2022-10-16T01:46:24;77565.72;;;-147.20;64.08
55038;BME280;40937;53.594;10.034;2022-10-16T01:48:51;77567.72;;;-147.20;64.09
55038;BME280;40937;53.594;10.034;2022-10-16T01:51:19;77573.78;;;-147.20;64.45
55038;BME280;40937;53.594;10.034;2022-10-16T01:53:48;77567.72;;;-147.20;64.40
55038;BME280;40937;53.594;10.034;2022-10-16T01:56:17;77571.78;;;-147.20;64.47
55038;BME280;40937;53.594;10.034;2022-10-16T01:58:49;77575.81;;;-147.20;64.69
55038;BME280;40937;53.594;10.034;2022-10-16T02:01:20;77579.84;;;-147.20;64.68
55038;BME280;40937;53.594;10.034;2022-10-16T02:03:50;77581.88;;;-147.20;64.59
55038;BME280;40937;53.594;10.034;2022-10-16T02:06:19;77581.88;;;-147.20;64.87
55038;BME280;40937;53.594;10.034;2022-10-16T02:08:47;77591.97;;;-147.20;64.92
55038;BME280;40937;53.594;10.034;2022-10-16T02:11:13;77587.94;;;-147.20;64.89
55038;BME280;40937;53.594;10.034;2022-10-16T02:13:43;77593.97;;;-147.20;64.84
55038;BME280;40937;53.594;10.034;2022-10-16T02:16:14;77585.91;;;-147.20;64.83
55038;BME280;40937;53.594;10.034;2022-10-16T02:18:42;77593.97;;;-147.20;64.82
55038;BME280;40937;53.594;10.034;2022-10-16T02:21:14;77598.00;;;-147.20;64.86
55038;BME280;40937;53.594;10.034;2022-10-16T02:23:48;77600.03;;;-147.20;64.69
55038;BME280;40937;53.594;10.034;2022-10-16T02:26:29;77604.06;;;-147.20;65.07
55038;BME280;40937;53.594;10.034;2022-10-16T02:29:02;77604.06;;;-147.20;64.93
55038;BME280;40937;53.594;10.034;2022-10-16T02:31:35;77604.06;;;-147.20;64.82
55038;BME280;40937;53.594;10.034;2022-10-16T02:34:05;77606.09;;;-147.20;64.77
55038;BME280;40937;53.594;10.034;2022-10-16T02:36:33;77612.16;;;-147.20;64.81
55038;BME280;40937;53.594;10.034;2022-10-16T02:39:02;77614.16;;;-147.20;64.57
55038;BME280;40937;53.594;10.034;2022-10-16T02:41:30;77612.16;;;-147.20;64.67
55038;BME280;40937;53.594;10.034;2022-10-16T02:43:57;77610.13;;;-147.20;64.71
55038;BME280;40937;53.594;10.034;2022-10-16T02:46:24;77602.06;;;-147.20;64.21
55038;BME280;40937;53.594;10.034;2022-10-16T02:48:52;77608.13;;;-147.20;64.13
55038;BME280;40937;53.594;10.034;2022-10-16T02:51:19;77614.16;;;-147.20;64.21
55038;BME280;40937;53.594;10.034;2022-10-16T02:53:45;77616.19;;;-147.20;64.08
55038;BME280;40937;53.594;10.034;2022-10-16T02:56:12;77618.22;;;-147.20;64.18
55038;BME280;40937;53.594;10.034;2022-10-16T02:58:38;77626.28;;;-147.20;64.34
55038;BME280;40937;53.594;10.034;2022-10-16T03:01:05;77622.25;;;-147.20;64.41
55038;BME280;40937;53.594;10.034;2022-10-16T03:03:32;77626.28;;;-147.20;64.47
55038;BME280;40937;53.594;10.034;2022-10-16T03:05:59;77636.38;;;-147.20;64.59
55038;BME280;40937;53.594;10.034;2022-10-16T03:08:26;77634.34;;;-147.20;64.75
55038;BME280;40937;53.594;10.034;2022-10-16T03:10:53;77626.28;;;-147.20;64.74
55038;BME280;40937;53.594;10.034;2022-10-16T03:13:19;77626.28;;;-147.20;64.82
55038;BME280;40937;53.594;10.034;2022-10-16T03:15:47;77624.25;;;-147.20;64.97
55038;BME280;40937;53.594;10.034;2022-10-16T03:18:13;77626.28;;;-147.20;65.00
55038;BME280;40937;53.594;10.034;2022-10-16T03:20:40;77628.31;;;-147.20;65.07
55038;BME280;40937;53.594;10.034;2022-10-16T03:23:08;77628.31;;;-147.20;65.05
55038;BME280;40937;53.594;10.034;2022-10-16T03:25:35;77644.44;;;-147.20;65.35
55038;BME280;40937;53.594;10.034;2022-10-16T03:28:02;77640.41;;;-147.20;65.27
55038;BME280;40937;53.594;10.034;2022-10-16T03:30:28;77642.44;;;-147.20;65.37
55038;BME280;40937;53.594;10.034;2022-10-16T03:32:55;77644.44;;;-147.20;65.51
55038;BME280;40937;53.594;10.034;2022-10-16T03:35:22;77648.50;;;-147.20;65.45
55038;BME280;40937;53.594;10.034;2022-10-16T03:37:49;77652.53;;;-147.20;65.38
55038;BME280;40937;53.594;10.034;2022-10-16T03:40:17;77656.56;;;-147.20;65.39
55038;BME280;40937;53.594;10.034;2022-10-16T03:42:44;77654.53;;;-147.20;65.52
55038;BME280;40937;53.594;10.034;2022-10-16T03:45:11;77656.56;;;-147.20;65.51
55038;BME280;40937;53.594;10.034;2022-10-16T03:47:38;77654.53;;;-147.20;65.65
55038;BME280;40937;53.594;10.034;2022-10-16T03:50:05;77664.63;;;-147.20;65.77
55038;BME280;40937;53.594;10.034;2022-10-16T03:52:32;77666.66;;;-147.20;65.75
55038;BME280;40937;53.594;10.034;2022-10-16T03:54:59;77668.69;;;-147.20;65.75
55038;BME280;40937;53.594;10.034;2022-10-16T03:57:27;77664.63;;;-147.20;65.81
55038;BME280;40937;53.594;10.034;2022-10-16T03:59:53;77662.63;;;-147.20;65.92
55038;BME280;40937;53.594;10.034;2022-10-16T04:02:20;77668.69;;;-147.20;65.93
55038;BME280;40937;53.594;10.034;2022-10-16T04:04:46;77666.66;;;-147.20;65.90
55038;BME280;40937;53.594;10.034;2022-10-16T04:07:13;77680.78;;;-147.20;65.87
55038;BME280;40937;53.594;10.034;2022-10-16T04:09:40;77682.81;;;-147.20;65.68
55038;BME280;40937;53.594;10.034;2022-10-16T04:12:07;77686.84;;;-147.20;65.79
55038;BME280;40937;53.594;10.034;2022-10-16T04:14:35;77698.97;;;-147.20;65.88
55038;BME280;40937;53.594;10.034;2022-10-16T04:17:02;77703.00;;;-147.20;65.99
55038;BME280;40937;53.594;10.034;2022-10-16T04:19:28;77700.97;;;-147.20;65.90
55038;BME280;40937;53.594;10.034;2022-10-16T04:21:55;77709.06;;;-147.20;65.93
55038;BME280;40937;53.594;10.034;2022-10-16T04:24:22;77713.09;;;-147.20;66.00
55038;BME280;40937;53.594;10.034;2022-10-16T04:26:48;77711.06;;;-147.20;66.12
55038;BME280;40937;53.594;10.034;2022-10-16T04:29:15;77717.13;;;-147.20;65.75
55038;BME280;40937;53.594;10.034;2022-10-16T04:31:43;77709.06;;;-147.20;65.73
55038;BME280;40937;53.594;10.034;2022-10-16T04:34:09;77711.06;;;-147.20;65.81
55038;BME280;40937;53.594;10.034;2022-10-16T04:36:36;77715.13;;;-147.20;65.84
55038;BME280;40937;53.594;10.034;2022-10-16T04:39:03;77713.09;;;-147.20;65.74
55038;BME280;40937;53.594;10.034;2022-10-16T04:41:29;77725.22;;;-147.20;65.85
55038;BME280;40937;53.594;10.034;2022-10-16T04:43:56;77731.25;;;-147.20;65.69
55038;BME280;40937;53.594;10.034;2022-10-16T04:46:22;77727.22;;;-147.20;65.81
55038;BME280;40937;53.594;10.034;2022-10-16T04:48:50;77725.22;;;-147.20;65.68
55038;BME280;40937;53.594;10.034;2022-10-16T04:51:17;77727.22;;;-147.20;65.51
55038;BME280;40937;53.594;10.034;2022-10-16T04:53:44;77733.28;;;-147.20;65.69
55038;BME280;40937;53.594;10.034;2022-10-16T04:56:10;77731.25;;;-147.20;65.55
55038;BME280;40937;53.594;10.034;2022-10-16T04:58:37;77735.31;;;-147.20;65.87
55038;BME280;40937;53.594;10.034;2022-10-16T05:01:04;77731.25;;;-147.20;65.98
55038;BME280;40937;53.594;10.034;2022-10-16T05:03:30;77733.28;;;-147.20;66.05
55038;BME280;40937;53.594;10.034;2022-10-16T05:05:58;77739.34;;;-147.20;66.10
55038;BME280;40937;53.594;10.034;2022-10-16T05:08:25;77741.34;;;-147.20;66.21
55038;BME280;40937;53.594;10.034;2022-10-16T05:10:51;77739.34;;;-147.20;66.19
55038;BME280;40937;53.594;10.034;2022-10-16T05:13:18;77739.34;;;-147.20;66.23
55038;BME280;40937;53.594;10.034;2022-10-16T05:15:46;77745.41;;;-147.20;66.20
55038;BME280;40937;53.594;10.034;2022-10-16T05:18:14;77749.44;;;-147.20;66.49
55038;BME280;40937;53.594;10.034;2022-10-16T05:20:41;77751.47;;;-147.20;66.55
55038;BME280;40937;53.594;10.034;2022-10-16T05:23:09;77763.56;;;-147.20;66.74
55038;BME280;40937;53.594;10.034;2022-10-16T05:25:37;77757.50;;;-147.20;66.94
55038;BME280;40937;53.594;10.034;2022-10-16T05:28:04;77759.53;;;-147.20;66.94
55038;BME280;40937;53.594;10.034;2022-10-16T05:30:30;77759.53;;;-147.20;67.03
55038;BME280;40937;53.594;10.034;2022-10-16T05:32:57;77761.56;;;-147.20;66.95
55038;BME280;40937;53.594;10.034;2022-10-16T05:35:23;77761.56;;;-147.20;67.07
55038;BME280;40937;53.594;10.034;2022-10-16T05:37:50;77761.56;;;-147.20;66.99
55038;BME280;40937;53.594;10.034;2022-10-16T05:40:18;77765.59;;;-147.20;66.92
55038;BME280;40937;53.594;10.034;2022-10-16T05:42:45;77767.59;;;-147.20;66.97
55038;BME280;40937;53.594;10.034;2022-10-16T05:45:11;77761.56;;;-147.20;67.01
55038;BME280;40937;53.594;10.034;2022-10-16T05:47:38;77755.50;;;-147.20;67.06
55038;BME280;40937;53.594;10.034;2022-10-16T05:50:08;77755.50;;;-147.20;67.11
55038;BME280;40937;53.594;10.034;2022-10-16T05:52:36;77751.47;;;-147.20;67.20
55038;BME280;40937;53.594;10.034;2022-10-16T05:55:03;77763.56;;;-147.20;67.38
55038;BME280;40937;53.594;10.034;2022-10-16T05:57:31;77763.56;;;-147.20;67.28
55038;BME280;40937;53.594;10.034;2022-10-16T05:59:58;77771.66;;;-147.20;67.39
55038;BME280;40937;53.594;10.034;2022-10-16T06:02:24;77765.59;;;-147.20;67.43
55038;BME280;40937;53.594;10.034;2022-10-16T06:04:51;77765.59;;;-147.20;67.43
55038;BME280;40937;53.594;10.034;2022-10-16T06:07:18;77761.56;;;-147.20;67.68
55038;BME280;40937;53.594;10.034;2022-10-16T06:09:48;77765.59;;;-147.20;67.56
55038;BME280;40937;53.594;10.034;2022-10-16T06:12:14;77767.59;;;-147.20;67.73
55038;BME280;40937;53.594;10.034;2022-10-16T06:14:43;77769.63;;;-147.20;67.65
55038;BME280;40937;53.594;10.034;2022-10-16T06:17:10;77761.56;;;-147.20;67.69
55038;BME280;40937;53.594;10.034;2022-10-16T06:19:37;77761.56;;;-147.20;67.75
55038;BME280;40937;53.594;10.034;2022-10-16T06:22:03;77763.56;;;-147.20;67.65
55038;BME280;40937;53.594;10.034;2022-10-16T06:24:30;77757.50;;;-147.20;67.76
55038;BME280;40937;53.594;10.034;2022-10-16T06:26:56;77771.66;;;-147.20;67.85
55038;BME280;40937;53.594;10.034;2022-10-16T06:29:23;77771.66;;;-147.20;67.78
55038;BME280;40937;53.594;10.034;2022-10-16T06:31:51;77777.69;;;-147.20;67.94
55038;BME280;40937;53.594;10.034;2022-10-16T06:34:18;77769.63;;;-147.20;68.02
55038;BME280;40937;53.594;10.034;2022-10-16T06:36:44;77777.69;;;-147.20;68.07
55038;BME280;40937;53.594;10.034;2022-10-16T06:39:11;77777.69;;;-147.20;68.10
55038;BME280;40937;53.594;10.034;2022-10-16T06:41:37;77783.75;;;-147.20;68.24
55038;BME280;40937;53.594;10.034;2022-10-16T06:44:14;77787.78;;;-147.20;68.23
55038;BME280;40937;53.594;10.034;2022-10-16T06:46:41;77787.78;;;-147.20;68.33
55038;BME280;40937;53.594;10.034;2022-10-16T06:49:09;77787.78;;;-147.20;68.21
55038;BME280;40937;53.594;10.034;2022-10-16T06:51:35;77789.81;;;-147.20;68.48
55038;BME280;40937;53.594;10.034;2022-10-16T06:54:06;77793.84;;;-147.20;68.50
55038;BME280;40937;53.594;10.034;2022-10-16T06:56:33;77803.94;;;-147.20;68.64
55038;BME280;40937;53.594;10.034;2022-10-16T06:59:00;77805.97;;;-147.20;68.84
55038;BME280;40937;53.594;10.034;2022-10-16T07:01:27;77801.94;;;-147.20;68.98
55038;BME280;40937;53.594;10.034;2022-10-16T07:03:54;77803.94;;;-147.20;69.01
55038;BME280;40937;53.594;10.034;2022-10-16T07:06:24;77801.94;;;-147.20;69.03
55038;BME280;40937;53.594;10.034;2022-10-16T07:08:51;77808.00;;;-147.20;69.15
55038;BME280;40937;53.594;10.034;2022-10-16T07:11:19;77810.00;;;-147.20;69.28
55038;BME280;40937;53.594;10.034;2022-10-16T07:13:47;77803.94;;;-147.20;69.37
55038;BME280;40937;53.594;10.034;2022-10-16T07:16:19;77799.91;;;-147.20;69.35
55038;BME280;40937;53.594;10.034;2022-10-16T07:18:46;77797.88;;;-147.20;69.34
55038;BME280;40937;53.594;10.034;2022-10-16T07:21:15;77795.88;;;-147.20;69.64
55038;BME280;40937;53.594;10.034;2022-10-16T07:23:44;77791.84;;;-147.20;69.57
55038;BME280;40937;53.594;10.034;2022-10-16T07:26:11;77793.84;;;-147.20;69.65
55038;BME280;40937;53.594;10.034;2022-10-16T07:28:38;77789.81;;;-147.20;69.73
55038;BME280;40937;53.594;10.034;2022-10-16T07:31:09;77789.81;;;-147.20;69.73
55038;BME280;40937;53.594;10.034;2022-10-16T07:33:37;77785.78;;;-147.20;69.66
55038;BME280;40937;53.594;10.034;2022-10-16T07:36:05;77791.84;;;-147.20;69.79
55038;BME280;40937;53.594;10.034;2022-10-16T07:38:32;77793.84;;;-147.20;69.89
55038;BME280;40937;53.594;10.034;2022-10-16T07:41:01;77799.91;;;-147.20;69.96
55038;BME280;40937;53.594;10.034;2022-10-16T07:43:29;77797.88;;;-147.20;70.23
55038;BME280;40937;53.594;10.034;2022-10-16T07:45:56;77803.94;;;-147.20;70.23
55038;BME280;40937;53.594;10.034;2022-10-16T07:48:24;77797.88;;;-147.20;70.28
55038;BME280;40937;53.594;10.034;2022-10-16T07:50:56;77779.72;;;-147.20;69.94
55038;BME280;40937;53.594;10.034;2022-10-16T07:53:22;77773.66;;;-147.20;69.54
55038;BME280;40937;53.594;10.034;2022-10-16T07:55:49;77767.59;;;-147.20;69.20
55038;BME280;40937;53.594;10.034;2022-10-16T07:58:17;77763.56;;;-147.20;69.25
55038;BME280;40937;53.594;10.034;2022-10-16T08:00:43;77755.50;;;-147.20;68.90
55038;BME280;40937;53.594;10.034;2022-10-16T08:03:10;77765.59;;;-147.20;68.88
55038;BME280;40937;53.594;10.034;2022-10-16T08:05:37;77763.56;;;-147.20;68.97
55038;BME280;40937;53.594;10.034;2022-10-16T08:08:03;77765.59;;;-147.20;68.78
55038;BME280;40937;53.594;10.034;2022-10-16T08:10:30;77763.56;;;-147.20;68.87
55038;BME280;40937;53.594;10.034;2022-10-16T08:12:57;77769.63;;;-147.20;68.84
55038;BME280;40937;53.594;10.034;2022-10-16T08:15:25;77763.56;;;-147.20;68.90
55038;BME280;40937;53.594;10.034;2022-10-16T08:17:56;77769.63;;;-147.20;68.70
55038;BME280;40937;53.594;10.034;2022-10-16T08:20:23;77767.59;;;-147.20;68.83
55038;BME280;40937;53.594;10.034;2022-10-16T08:22:50;77761.56;;;-147.20;68.78
55038;BME280;40937;53.594;10.034;2022-10-16T08:25:17;77761.56;;;-147.20;68.81
55038;BME280;40937;53.594;10.034;2022-10-16T08:27:43;77761.56;;;-147.20;68.65
55038;BME280;40937;53.594;10.034;2022-10-16T08:30:11;77753.47;;;-147.20;68.14
55038;BME280;40937;53.594;10.034;2022-10-16T08:32:40;77745.41;;;-147.20;67.98
55038;BME280;40937;53.594;10.034;2022-10-16T08:35:08;77743.38;;;-147.20;67.91
55038;BME280;40937;53.594;10.034;2022-10-16T08:37:35;77725.22;;;-147.20;67.39
55038;BME280;40937;53.594;10.034;2022-10-16T08:40:03;77707.03;;;-147.20;66.96
55038;BME280;40937;53.594;10.034;2022-10-16T08:42:42;77715.13;;;-147.20;67.08
55038;BME280;40937;53.594;10.034;2022-10-16T08:45:26;77715.13;;;-147.20;67.31
55038;BME280;40937;53.594;10.034;2022-10-16T08:48:04;77717.13;;;-147.20;67.26
55038;BME280;40937;53.594;10.034;2022-10-16T08:50:58;77709.06;;;-147.20;67.08
55038;BME280;40937;53.594;10.034;2022-10-16T08:53:43;77703.00;;;-147.20;66.54
55038;BME280;40937;53.594;10.034;2022-10-16T08:56:36;77705.03;;;-147.20;66.57
55038;BME280;40937;53.594;10.034;2022-10-16T08:59:33;77713.09;;;-147.20;66.59
55038;BME280;40937;53.594;10.034;2022-10-16T09:02:37;77711.06;;;-147.20;66.65
55038;BME280;40937;53.594;10.034;2022-10-16T09:05:24;77703.00;;;-147.20;66.23
55038;BME280;40937;53.594;10.034;2022-10-16T09:08:03;77713.09;;;-147.20;66.34
55038;BME280;40937;53.594;10.034;2022-10-16T09:10:42;77698.97;;;-147.20;65.58
55038;BME280;40937;53.594;10.034;2022-10-16T09:13:20;77703.00;;;-147.20;65.74
55038;BME280;40937;53.594;10.034;2022-10-16T09:15:56;77703.00;;;-147.20;65.99
55038;BME280;40937;53.594;10.034;2022-10-16T09:18:29;77705.03;;;-147.20;65.97
55038;BME280;40937;53.594;10.034;2022-10-16T09:21:05;77696.94;;;-147.20;65.57
55038;BME280;40937;53.594;10.034;2022-10-16T09:23:35;77696.94;;;-147.20;65.45
55038;BME280;40937;53.594;10.034;2022-10-16T09:26:03;77698.97;;;-147.20;65.48
55038;BME280;40937;53.594;10.034;2022-10-16T09:28:32;77696.94;;;-147.20;65.17
55038;BME280;40937;53.594;10.034;2022-10-16T09:30:59;77690.88;;;-147.20;64.59
55038;BME280;40937;53.594;10.034;2022-10-16T09:33:30;77686.84;;;-147.20;64.13
55038;BME280;40937;53.594;10.034;2022-10-16T09:36:03;77678.78;;;-147.20;63.19
55038;BME280;40937;53.594;10.034;2022-10-16T09:38:32;77662.63;;;-147.20;62.68
55038;BME280;40937;53.594;10.034;2022-10-16T09:41:01;77648.50;;;-147.20;62.06
55038;BME280;40937;53.594;10.034;2022-10-16T09:43:32;77648.50;;;-147.20;61.01
55038;BME280;40937;53.594;10.034;2022-10-16T09:46:03;77648.50;;;-147.20;60.81
55038;BME280;40937;53.594;10.034;2022-10-16T09:48:36;77638.41;;;-147.20;61.08
55038;BME280;40937;53.594;10.034;2022-10-16T09:51:13;77644.44;;;-147.20;60.86
55038;BME280;40937;53.594;10.034;2022-10-16T09:53:44;77640.41;;;-147.20;60.14
55038;BME280;40937;53.594;10.034;2022-10-16T09:56:11;77638.41;;;-147.20;59.93
55038;BME280;40937;53.594;10.034;2022-10-16T09:58:43;77642.44;;;-147.20;59.97
55038;BME280;40937;53.594;10.034;2022-10-16T10:01:13;77650.50;;;-147.20;60.19
55038;BME280;40937;53.594;10.034;2022-10-16T10:03:42;77638.41;;;-147.20;59.82
55038;BME280;40937;53.594;10.034;2022-10-16T10:06:32;77640.41;;;-147.20;60.02
55038;BME280;40937;53.594;10.034;2022-10-16T10:09:04;77638.41;;;-147.20;60.07
55038;BME280;40937;53.594;10.034;2022-10-16T10:11:42;77634.34;;;-147.20;59.77
55038;BME280;40937;53.594;10.034;2022-10-16T10:14:19;77638.41;;;-147.20;59.82
55038;BME280;40937;53.594;10.034;2022-10-16T10:16:47;77630.31;;;-147.20;59.17
55038;BME280;40937;53.594;10.034;2022-10-16T10:19:15;77630.31;;;-147.20;59.17
55038;BME280;40937;53.594;10.034;2022-10-16T10:21:43;77628.31;;;-147.20;59.35
55038;BME280;40937;53.594;10.034;2022-10-16T10:24:11;77632.34;;;-147.20;59.42
55038;BME280;40937;53.594;10.034;2022-10-16T10:26:38;77634.34;;;-147.20;59.52
55038;BME280;40937;53.594;10.034;2022-10-16T10:29:16;77624.25;;;-147.20;59.27
55038;BME280;40937;53.594;10.034;2022-10-16T10:31:53;77624.25;;;-147.20;59.20
55038;BME280;40937;53.594;10.034;2022-10-16T10:34:33;77614.16;;;-147.20;58.83
55038;BME280;40937;53.594;10.034;2022-10-16T10:37:09;77624.25;;;-147.20;59.17
55038;BME280;40937;53.594;10.034;2022-10-16T10:39:48;77628.31;;;-147.20;59.67
55038;BME280;40937;53.594;10.034;2022-10-16T10:42:22;77622.25;;;-147.20;59.69
55038;BME280;40937;53.594;10.034;2022-10-16T10:45:13;77610.13;;;-147.20;59.13
55038;BME280;40937;53.594;10.034;2022-10-16T10:47:49;77606.09;;;-147.20;58.18
55038;BME280;40937;53.594;10.034;2022-10-16T10:50:23;77602.06;;;-147.20;57.68
55038;BME280;40937;53.594;10.034;2022-10-16T10:53:00;77593.97;;;-147.20;57.68
55038;BME280;40937;53.594;10.034;2022-10-16T10:55:39;77596.00;;;-147.20;57.56
55038;BME280;40937;53.594;10.034;2022-10-16T10:58:40;77579.84;;;-147.20;56.96
55038;BME280;40937;53.594;10.034;2022-10-16T11:01:12;77571.78;;;-147.20;56.56
55038;BME280;40937;53.594;10.034;2022-10-16T11:04:01;77559.66;;;-147.20;55.69
55038;BME280;40937;53.594;10.034;2022-10-16T11:06:39;77555.63;;;-147.20;55.47
55038;BME280;40937;53.594;10.034;2022-10-16T11:09:12;77553.59;;;-147.20;55.56
55038;BME280;40937;53.594;10.034;2022-10-16T11:11:45;77543.50;;;-147.20;54.79
55038;BME280;40937;53.594;10.034;2022-10-16T11:14:19;77541.50;;;-147.20;54.12
55038;BME280;40937;53.594;10.034;2022-10-16T11:16:53;77517.25;;;-147.20;52.75
55038;BME280;40937;53.594;10.034;2022-10-16T11:19:28;77513.22;;;-147.20;52.68
55038;BME280;40937;53.594;10.034;2022-10-16T11:22:02;77525.34;;;-147.20;52.79
55038;BME280;40937;53.594;10.034;2022-10-16T11:24:37;77521.31;;;-147.20;52.75
55038;BME280;40937;53.594;10.034;2022-10-16T11:27:09;77515.25;;;-147.20;52.71
55038;BME280;40937;53.594;10.034;2022-10-16T11:29:45;77509.19;;;-147.20;52.62
55038;BME280;40937;53.594;10.034;2022-10-16T11:32:20;77505.16;;;-147.20;51.62
55038;BME280;40937;53.594;10.034;2022-10-16T11:34:51;77497.06;;;-147.20;50.77
55038;BME280;40937;53.594;10.034;2022-10-16T11:37:24;77507.16;;;-147.20;50.74
55038;BME280;40937;53.594;10.034;2022-10-16T11:39:56;77505.16;;;-147.20;50.33
55038;BME280;40937;53.594;10.034;2022-10-16T11:42:31;77515.25;;;-147.20;50.55
55038;BME280;40937;53.594;10.034;2022-10-16T11:45:03;77519.28;;;-147.20;50.66
55038;BME280;40937;53.594;10.034;2022-10-16T11:47:35;77511.22;;;-147.20;50.44
55038;BME280;40937;53.594;10.034;2022-10-16T11:50:12;77507.16;;;-147.20;50.54
55038;BME280;40937;53.594;10.034;2022-10-16T11:52:45;77533.41;;;-147.20;50.78
55038;BME280;40937;53.594;10.034;2022-10-16T11:55:18;77525.34;;;-147.20;51.21
55038;BME280;40937;53.594;10.034;2022-10-16T11:57:49;77527.34;;;-147.20;51.51
55038;BME280;40937;53.594;10.034;2022-10-16T12:00:22;77535.44;;;-147.20;51.50
55038;BME280;40937;53.594;10.034;2022-10-16T12:02:56;77539.47;;;-147.20;51.25
55038;BME280;40937;53.594;10.034;2022-10-16T12:05:33;77537.44;;;-147.20;50.25
55038;BME280;40937;53.594;10.034;2022-10-16T12:08:08;77545.53;;;-147.20;49.87
55038;BME280;40937;53.594;10.034;2022-10-16T12:10:38;77547.53;;;-147.20;49.87
55038;BME280;40937;53.594;10.034;2022-10-16T12:15:47;77551.59;;;-147.20;49.73
55038;BME280;40937;53.594;10.034;2022-10-16T12:18:21;77563.69;;;-147.20;49.89
55038;BME280;40937;53.594;10.034;2022-10-16T12:20:54;77569.75;;;-147.20;49.78
55038;BME280;40937;53.594;10.034;2022-10-16T12:23:24;77571.78;;;-147.20;49.96
55038;BME280;40937;53.594;10.034;2022-10-16T12:25:55;77565.72;;;-147.20;50.17
55038;BME280;40937;53.594;10.034;2022-10-16T12:28:27;77559.66;;;-147.20;50.10
55038;BME280;40937;53.594;10.034;2022-10-16T12:30:55;77549.56;;;-147.20;49.71
55038;BME280;40937;53.594;10.034;2022-10-16T12:33:25;77545.53;;;-147.20;49.18
55038;BME280;40937;53.594;10.034;2022-10-16T12:35:53;77549.56;;;-147.20;49.06
55038;BME280;40937;53.594;10.034;2022-10-16T12:38:21;77543.50;;;-147.20;49.04
55038;BME280;40937;53.594;10.034;2022-10-16T12:40:58;77549.56;;;-147.20;48.81
55038;BME280;40937;53.594;10.034;2022-10-16T12:43:35;77537.44;;;-147.20;48.51
55038;BME280;40937;53.594;10.034;2022-10-16T12:46:06;77539.47;;;-147.20;48.46
55038;BME280;40937;53.594;10.034;2022-10-16T12:48:46;77541.50;;;-147.20;47.98